Terminal Aerodrome Forecast
Issued by NWS Cleveland, OH

Home | Current Version | Previous Version | Graphics & Text | Print | Product List | Glossary On
Versions: 1 2 3 4 5 6 7 8 9 10 11 12 13 14 15 16 17 18 19
203
FTUS41 KCLE 240800 AAA
TAFYNG
TAF AMD
KYNG 240800Z 2408/2506 24004KT 1SM BR BKN003
      TEMPO 2408/2412 1/4SM FG VV001
     FM241400 28007KT 6SM BR VCSH BKN012
     FM241800 30012KT P6SM VCSH BKN025
     FM250500 35005KT P6SM SCT020=

USA.gov is the U.S. government's official web portal to all federal, state and local government web resources and services.